sensor_id;sensor_type;location;lat;lon;timestamp;P1;durP1;ratioP1;P2;durP2;ratioP2
4808;SDS011;2418;49.930;8.606;2023-07-29T00:01:33;5.60;;;5.10;;
4808;SDS011;2418;49.930;8.606;2023-07-29T00:03:59;7.82;;;4.90;;
4808;SDS011;2418;49.930;8.606;2023-07-29T00:06:26;5.25;;;4.72;;
4808;SDS011;2418;49.930;8.606;2023-07-29T00:08:52;6.07;;;4.78;;
4808;SDS011;2418;49.930;8.606;2023-07-29T00:11:17;4.85;;;4.45;;
4808;SDS011;2418;49.930;8.606;2023-07-29T00:13:44;5.15;;;4.75;;
4808;SDS011;2418;49.930;8.606;2023-07-29T00:16:11;4.22;;;4.05;;
4808;SDS011;2418;49.930;8.606;2023-07-29T00:18:37;4.40;;;4.00;;
4808;SDS011;2418;49.930;8.606;2023-07-29T00:21:03;3.90;;;3.70;;
4808;SDS011;2418;49.930;8.606;2023-07-29T00:23:29;4.20;;;3.90;;
4808;SDS011;2418;49.930;8.606;2023-07-29T00:25:55;4.00;;;3.70;;
4808;SDS011;2418;49.930;8.606;2023-07-29T00:28:21;4.78;;;3.83;;
4808;SDS011;2418;49.930;8.606;2023-07-29T00:30:47;3.50;;;3.30;;
4808;SDS011;2418;49.930;8.606;2023-07-29T00:33:13;3.90;;;3.70;;
4808;SDS011;2418;49.930;8.606;2023-07-29T00:35:39;3.10;;;3.00;;
4808;SDS011;2418;49.930;8.606;2023-07-29T00:38:05;3.80;;;3.55;;
4808;SDS011;2418;49.930;8.606;2023-07-29T00:40:31;3.70;;;3.40;;
4808;SDS011;2418;49.930;8.606;2023-07-29T00:43:00;3.53;;;3.33;;
4808;SDS011;2418;49.930;8.606;2023-07-29T00:45:26;3.00;;;2.90;;
4808;SDS011;2418;49.930;8.606;2023-07-29T00:47:52;3.00;;;2.90;;
4808;SDS011;2418;49.930;8.606;2023-07-29T00:50:19;3.22;;;3.03;;
4808;SDS011;2418;49.930;8.606;2023-07-29T00:52:45;2.83;;;2.63;;
4808;SDS011;2418;49.930;8.606;2023-07-29T00:55:14;3.10;;;2.90;;
4808;SDS011;2418;49.930;8.606;2023-07-29T00:57:40;2.53;;;2.42;;
4808;SDS011;2418;49.930;8.606;2023-07-29T01:00:07;3.78;;;3.58;;
4808;SDS011;2418;49.930;8.606;2023-07-29T01:02:35;4.32;;;4.00;;
4808;SDS011;2418;49.930;8.606;2023-07-29T01:05:01;2.90;;;2.80;;
4808;SDS011;2418;49.930;8.606;2023-07-29T01:12:24;2.33;;;2.13;;
4808;SDS011;2418;49.930;8.606;2023-07-29T01:15:09;5.07;;;2.20;;
4808;SDS011;2418;49.930;8.606;2023-07-29T01:17:40;2.50;;;2.30;;
4808;SDS011;2418;49.930;8.606;2023-07-29T01:20:13;1.90;;;1.80;;
4808;SDS011;2418;49.930;8.606;2023-07-29T01:22:40;2.60;;;2.00;;
4808;SDS011;2418;49.930;8.606;2023-07-29T01:25:09;1.38;;;1.38;;
4808;SDS011;2418;49.930;8.606;2023-07-29T01:27:35;1.38;;;1.33;;
4808;SDS011;2418;49.930;8.606;2023-07-29T01:30:02;1.50;;;1.50;;
4808;SDS011;2418;49.930;8.606;2023-07-29T01:37:48;3.30;;;1.50;;
4808;SDS011;2418;49.930;8.606;2023-07-29T01:40:16;2.20;;;1.70;;
4808;SDS011;2418;49.930;8.606;2023-07-29T01:42:44;2.30;;;1.48;;
4808;SDS011;2418;49.930;8.606;2023-07-29T01:45:11;2.80;;;1.63;;
4808;SDS011;2418;49.930;8.606;2023-07-29T01:47:37;1.67;;;1.65;;
4808;SDS011;2418;49.930;8.606;2023-07-29T01:50:05;1.60;;;1.50;;
4808;SDS011;2418;49.930;8.606;2023-07-29T01:52:32;1.80;;;1.20;;
4808;SDS011;2418;49.930;8.606;2023-07-29T01:54:59;2.10;;;1.60;;
4808;SDS011;2418;49.930;8.606;2023-07-29T01:57:26;1.20;;;1.20;;
4808;SDS011;2418;49.930;8.606;2023-07-29T01:59:54;1.20;;;1.20;;
4808;SDS011;2418;49.930;8.606;2023-07-29T02:02:23;1.50;;;1.10;;
4808;SDS011;2418;49.930;8.606;2023-07-29T02:04:49;1.50;;;1.40;;
4808;SDS011;2418;49.930;8.606;2023-07-29T02:07:17;2.40;;;1.30;;
4808;SDS011;2418;49.930;8.606;2023-07-29T02:09:44;1.40;;;1.40;;
4808;SDS011;2418;49.930;8.606;2023-07-29T02:12:10;1.15;;;1.15;;
4808;SDS011;2418;49.930;8.606;2023-07-29T02:14:36;1.20;;;1.20;;
4808;SDS011;2418;49.930;8.606;2023-07-29T02:17:02;1.25;;;1.25;;
4808;SDS011;2418;49.930;8.606;2023-07-29T02:19:28;1.47;;;1.47;;
4808;SDS011;2418;49.930;8.606;2023-07-29T02:21:54;1.90;;;1.07;;
4808;SDS011;2418;49.930;8.606;2023-07-29T02:24:20;1.30;;;1.30;;
4808;SDS011;2418;49.930;8.606;2023-07-29T02:26:46;1.30;;;1.30;;
4808;SDS011;2418;49.930;8.606;2023-07-29T02:29:11;1.27;;;1.13;;
4808;SDS011;2418;49.930;8.606;2023-07-29T02:31:37;1.40;;;1.30;;
4808;SDS011;2418;49.930;8.606;2023-07-29T02:34:03;1.50;;;1.40;;
4808;SDS011;2418;49.930;8.606;2023-07-29T02:36:29;1.23;;;1.23;;
4808;SDS011;2418;49.930;8.606;2023-07-29T02:38:55;1.70;;;1.70;;
4808;SDS011;2418;49.930;8.606;2023-07-29T02:41:21;1.50;;;1.40;;
4808;SDS011;2418;49.930;8.606;2023-07-29T02:43:50;2.00;;;1.43;;
4808;SDS011;2418;49.930;8.606;2023-07-29T02:46:17;1.27;;;1.20;;
4808;SDS011;2418;49.930;8.606;2023-07-29T02:48:44;1.50;;;1.40;;
4808;SDS011;2418;49.930;8.606;2023-07-29T02:51:11;1.50;;;1.50;;
4808;SDS011;2418;49.930;8.606;2023-07-29T02:53:37;1.70;;;1.60;;
4808;SDS011;2418;49.930;8.606;2023-07-29T02:56:03;1.58;;;1.58;;
4808;SDS011;2418;49.930;8.606;2023-07-29T02:58:31;1.30;;;1.30;;
4808;SDS011;2418;49.930;8.606;2023-07-29T03:01:00;1.95;;;1.85;;
4808;SDS011;2418;49.930;8.606;2023-07-29T03:03:27;1.80;;;1.70;;
4808;SDS011;2418;49.930;8.606;2023-07-29T03:05:59;1.88;;;1.70;;
4808;SDS011;2418;49.930;8.606;2023-07-29T03:08:26;2.28;;;2.28;;
4808;SDS011;2418;49.930;8.606;2023-07-29T03:10:53;1.90;;;1.70;;
4808;SDS011;2418;49.930;8.606;2023-07-29T03:13:20;2.60;;;2.00;;
4808;SDS011;2418;49.930;8.606;2023-07-29T03:15:46;1.58;;;1.58;;
4808;SDS011;2418;49.930;8.606;2023-07-29T03:18:12;2.40;;;2.20;;
4808;SDS011;2418;49.930;8.606;2023-07-29T03:20:39;2.70;;;2.00;;
4808;SDS011;2418;49.930;8.606;2023-07-29T03:23:05;1.90;;;1.90;;
4808;SDS011;2418;49.930;8.606;2023-07-29T03:25:31;1.70;;;1.70;;
4808;SDS011;2418;49.930;8.606;2023-07-29T03:27:58;2.40;;;1.77;;
4808;SDS011;2418;49.930;8.606;2023-07-29T03:30:24;2.10;;;2.00;;
4808;SDS011;2418;49.930;8.606;2023-07-29T03:32:50;1.70;;;1.70;;
4808;SDS011;2418;49.930;8.606;2023-07-29T03:35:16;1.70;;;1.70;;
4808;SDS011;2418;49.930;8.606;2023-07-29T03:37:42;1.27;;;1.27;;
4808;SDS011;2418;49.930;8.606;2023-07-29T03:40:08;2.15;;;2.15;;
4808;SDS011;2418;49.930;8.606;2023-07-29T03:42:36;2.10;;;2.00;;
4808;SDS011;2418;49.930;8.606;2023-07-29T03:45:02;2.70;;;1.90;;
4808;SDS011;2418;49.930;8.606;2023-07-29T03:47:28;2.17;;;1.98;;
4808;SDS011;2418;49.930;8.606;2023-07-29T03:49:55;2.10;;;2.00;;
4808;SDS011;2418;49.930;8.606;2023-07-29T03:52:21;2.92;;;2.30;;
4808;SDS011;2418;49.930;8.606;2023-07-29T03:54:47;2.35;;;2.15;;
4808;SDS011;2418;49.930;8.606;2023-07-29T03:57:13;2.95;;;2.10;;
4808;SDS011;2418;49.930;8.606;2023-07-29T03:59:39;4.35;;;1.85;;
4808;SDS011;2418;49.930;8.606;2023-07-29T04:02:05;2.00;;;1.90;;
4808;SDS011;2418;49.930;8.606;2023-07-29T04:04:32;2.47;;;2.00;;
4808;SDS011;2418;49.930;8.606;2023-07-29T04:06:58;2.10;;;2.10;;
4808;SDS011;2418;49.930;8.606;2023-07-29T04:09:24;3.20;;;2.80;;
4808;SDS011;2418;49.930;8.606;2023-07-29T04:11:50;2.33;;;2.22;;
4808;SDS011;2418;49.930;8.606;2023-07-29T04:14:16;1.93;;;1.83;;
4808;SDS011;2418;49.930;8.606;2023-07-29T04:16:42;2.50;;;2.30;;
4808;SDS011;2418;49.930;8.606;2023-07-29T04:19:08;2.00;;;2.00;;
4808;SDS011;2418;49.930;8.606;2023-07-29T04:21:35;2.38;;;2.28;;
4808;SDS011;2418;49.930;8.606;2023-07-29T04:24:01;2.20;;;2.10;;
4808;SDS011;2418;49.930;8.606;2023-07-29T04:26:27;3.90;;;2.00;;
4808;SDS011;2418;49.930;8.606;2023-07-29T04:28:54;5.70;;;2.30;;
4808;SDS011;2418;49.930;8.606;2023-07-29T04:31:20;2.30;;;2.10;;
4808;SDS011;2418;49.930;8.606;2023-07-29T04:33:46;2.47;;;2.30;;
4808;SDS011;2418;49.930;8.606;2023-07-29T04:36:13;2.10;;;2.10;;
4808;SDS011;2418;49.930;8.606;2023-07-29T04:38:39;2.97;;;2.43;;
4808;SDS011;2418;49.930;8.606;2023-07-29T04:41:05;2.00;;;1.90;;
4808;SDS011;2418;49.930;8.606;2023-07-29T04:43:32;1.80;;;1.80;;
4808;SDS011;2418;49.930;8.606;2023-07-29T04:45:58;2.23;;;2.13;;
4808;SDS011;2418;49.930;8.606;2023-07-29T04:48:24;2.03;;;1.92;;
4808;SDS011;2418;49.930;8.606;2023-07-29T04:50:50;3.10;;;2.10;;
4808;SDS011;2418;49.930;8.606;2023-07-29T04:53:16;2.03;;;2.00;;
4808;SDS011;2418;49.930;8.606;2023-07-29T04:55:42;3.00;;;2.20;;
4808;SDS011;2418;49.930;8.606;2023-07-29T04:58:08;2.00;;;1.80;;
4808;SDS011;2418;49.930;8.606;2023-07-29T05:00:34;2.10;;;2.08;;
4808;SDS011;2418;49.930;8.606;2023-07-29T05:03:00;1.97;;;1.93;;
4808;SDS011;2418;49.930;8.606;2023-07-29T05:05:26;2.20;;;2.20;;
4808;SDS011;2418;49.930;8.606;2023-07-29T05:07:52;2.97;;;2.10;;
4808;SDS011;2418;49.930;8.606;2023-07-29T05:10:20;3.63;;;2.13;;
4808;SDS011;2418;49.930;8.606;2023-07-29T05:12:46;2.03;;;1.92;;
4808;SDS011;2418;49.930;8.606;2023-07-29T05:15:12;2.38;;;2.25;;
4808;SDS011;2418;49.930;8.606;2023-07-29T05:17:38;2.10;;;1.90;;
4808;SDS011;2418;49.930;8.606;2023-07-29T05:20:05;1.77;;;1.77;;
4808;SDS011;2418;49.930;8.606;2023-07-29T05:22:31;2.50;;;1.88;;
4808;SDS011;2418;49.930;8.606;2023-07-29T05:24:57;1.80;;;1.70;;
4808;SDS011;2418;49.930;8.606;2023-07-29T05:27:23;5.63;;;1.80;;
4808;SDS011;2418;49.930;8.606;2023-07-29T05:29:49;1.67;;;1.58;;
4808;SDS011;2418;49.930;8.606;2023-07-29T05:32:15;1.80;;;1.70;;
4808;SDS011;2418;49.930;8.606;2023-07-29T05:34:41;1.65;;;1.65;;
4808;SDS011;2418;49.930;8.606;2023-07-29T05:37:07;1.90;;;1.90;;
4808;SDS011;2418;49.930;8.606;2023-07-29T05:39:33;1.63;;;1.63;;
4808;SDS011;2418;49.930;8.606;2023-07-29T05:41:59;1.90;;;1.80;;
4808;SDS011;2418;49.930;8.606;2023-07-29T05:44:27;2.22;;;2.03;;
4808;SDS011;2418;49.930;8.606;2023-07-29T05:46:57;2.40;;;1.97;;
4808;SDS011;2418;49.930;8.606;2023-07-29T05:49:23;1.55;;;1.55;;
4808;SDS011;2418;49.930;8.606;2023-07-29T05:51:49;2.05;;;1.90;;
4808;SDS011;2418;49.930;8.606;2023-07-29T05:54:18;1.75;;;1.65;;
4808;SDS011;2418;49.930;8.606;2023-07-29T05:56:44;3.20;;;1.80;;
4808;SDS011;2418;49.930;8.606;2023-07-29T05:59:10;2.00;;;1.90;;
4808;SDS011;2418;49.930;8.606;2023-07-29T06:01:36;1.60;;;1.60;;
4808;SDS011;2418;49.930;8.606;2023-07-29T06:04:03;3.10;;;1.88;;
4808;SDS011;2418;49.930;8.606;2023-07-29T06:06:29;1.90;;;1.80;;
4808;SDS011;2418;49.930;8.606;2023-07-29T06:08:55;2.70;;;2.30;;
4808;SDS011;2418;49.930;8.606;2023-07-29T06:11:21;2.03;;;1.92;;
4808;SDS011;2418;49.930;8.606;2023-07-29T06:13:47;1.60;;;1.60;;
4808;SDS011;2418;49.930;8.606;2023-07-29T06:16:13;2.00;;;1.90;;
4808;SDS011;2418;49.930;8.606;2023-07-29T06:18:39;1.95;;;1.75;;
4808;SDS011;2418;49.930;8.606;2023-07-29T06:21:05;2.40;;;2.30;;
4808;SDS011;2418;49.930;8.606;2023-07-29T06:23:33;2.08;;;2.08;;
4808;SDS011;2418;49.930;8.606;2023-07-29T06:25:59;2.78;;;2.60;;
4808;SDS011;2418;49.930;8.606;2023-07-29T06:28:25;2.42;;;2.28;;
4808;SDS011;2418;49.930;8.606;2023-07-29T06:30:52;2.10;;;2.10;;
4808;SDS011;2418;49.930;8.606;2023-07-29T06:33:18;2.53;;;2.33;;
4808;SDS011;2418;49.930;8.606;2023-07-29T06:35:44;2.67;;;2.47;;
4808;SDS011;2418;49.930;8.606;2023-07-29T06:38:10;2.67;;;2.58;;
4808;SDS011;2418;49.930;8.606;2023-07-29T06:40:36;2.70;;;2.60;;
4808;SDS011;2418;49.930;8.606;2023-07-29T06:43:02;2.50;;;2.40;;
4808;SDS011;2418;49.930;8.606;2023-07-29T06:45:28;3.22;;;2.58;;
4808;SDS011;2418;49.930;8.606;2023-07-29T06:47:55;2.90;;;2.73;;
4808;SDS011;2418;49.930;8.606;2023-07-29T06:50:21;4.70;;;3.20;;
4808;SDS011;2418;49.930;8.606;2023-07-29T06:52:47;2.78;;;2.67;;
4808;SDS011;2418;49.930;8.606;2023-07-29T06:55:13;3.60;;;2.50;;
4808;SDS011;2418;49.930;8.606;2023-07-29T06:57:39;2.70;;;2.60;;
4808;SDS011;2418;49.930;8.606;2023-07-29T07:00:05;3.95;;;3.17;;
4808;SDS011;2418;49.930;8.606;2023-07-29T07:02:34;3.23;;;2.93;;
4808;SDS011;2418;49.930;8.606;2023-07-29T07:05:00;3.10;;;3.00;;
4808;SDS011;2418;49.930;8.606;2023-07-29T07:07:26;3.50;;;3.25;;
4808;SDS011;2418;49.930;8.606;2023-07-29T07:09:52;3.95;;;3.75;;
4808;SDS011;2418;49.930;8.606;2023-07-29T07:12:17;4.20;;;4.00;;
4808;SDS011;2418;49.930;8.606;2023-07-29T07:14:44;3.70;;;3.50;;
4808;SDS011;2418;49.930;8.606;2023-07-29T07:17:10;4.35;;;4.15;;
4808;SDS011;2418;49.930;8.606;2023-07-29T07:19:35;4.80;;;4.50;;
4808;SDS011;2418;49.930;8.606;2023-07-29T07:22:02;4.93;;;4.63;;
4808;SDS011;2418;49.930;8.606;2023-07-29T07:24:28;4.73;;;4.53;;
4808;SDS011;2418;49.930;8.606;2023-07-29T07:26:54;4.40;;;4.30;;
4808;SDS011;2418;49.930;8.606;2023-07-29T07:29:20;5.30;;;4.88;;
4808;SDS011;2418;49.930;8.606;2023-07-29T07:31:52;4.70;;;4.50;;
4808;SDS011;2418;49.930;8.606;2023-07-29T07:34:22;4.13;;;4.03;;
4808;SDS011;2418;49.930;8.606;2023-07-29T07:36:48;4.90;;;4.50;;
4808;SDS011;2418;49.930;8.606;2023-07-29T07:39:14;3.50;;;3.40;;
4808;SDS011;2418;49.930;8.606;2023-07-29T07:41:40;3.75;;;3.55;;
4808;SDS011;2418;49.930;8.606;2023-07-29T07:44:07;4.03;;;3.88;;
4808;SDS011;2418;49.930;8.606;2023-07-29T07:46:33;3.90;;;3.80;;
4808;SDS011;2418;49.930;8.606;2023-07-29T07:48:59;2.87;;;2.73;;
4808;SDS011;2418;49.930;8.606;2023-07-29T07:51:25;2.80;;;2.60;;
4808;SDS011;2418;49.930;8.606;2023-07-29T07:53:51;2.70;;;2.60;;
4808;SDS011;2418;49.930;8.606;2023-07-29T07:56:17;2.10;;;2.10;;
4808;SDS011;2418;49.930;8.606;2023-07-29T07:58:42;2.20;;;2.00;;
4808;SDS011;2418;49.930;8.606;2023-07-29T08:01:08;1.50;;;1.50;;
4808;SDS011;2418;49.930;8.606;2023-07-29T08:03:35;1.80;;;1.70;;
4808;SDS011;2418;49.930;8.606;2023-07-29T08:06:01;2.63;;;1.88;;
4808;SDS011;2418;49.930;8.606;2023-07-29T08:08:27;1.60;;;1.50;;
4808;SDS011;2418;49.930;8.606;2023-07-29T08:10:54;1.65;;;1.65;;
4808;SDS011;2418;49.930;8.606;2023-07-29T08:13:22;2.00;;;1.80;;
4808;SDS011;2418;49.930;8.606;2023-07-29T08:15:48;1.40;;;1.40;;
4808;SDS011;2418;49.930;8.606;2023-07-29T08:18:15;1.83;;;1.70;;
4808;SDS011;2418;49.930;8.606;2023-07-29T08:20:41;4.50;;;1.70;;
4808;SDS011;2418;49.930;8.606;2023-07-29T08:23:07;1.40;;;1.30;;
4808;SDS011;2418;49.930;8.606;2023-07-29T08:25:33;1.70;;;1.60;;
4808;SDS011;2418;49.930;8.606;2023-07-29T08:27:59;4.55;;;1.70;;
4808;SDS011;2418;49.930;8.606;2023-07-29T08:30:25;1.50;;;1.50;;
4808;SDS011;2418;49.930;8.606;2023-07-29T08:32:51;1.45;;;1.38;;
4808;SDS011;2418;49.930;8.606;2023-07-29T08:35:17;1.30;;;1.20;;
4808;SDS011;2418;49.930;8.606;2023-07-29T08:37:43;1.13;;;1.13;;
4808;SDS011;2418;49.930;8.606;2023-07-29T08:40:09;1.30;;;1.10;;
4808;SDS011;2418;49.930;8.606;2023-07-29T08:42:40;0.80;;;0.80;;
4808;SDS011;2418;49.930;8.606;2023-07-29T08:45:07;3.55;;;0.90;;
4808;SDS011;2418;49.930;8.606;2023-07-29T08:47:34;1.90;;;1.10;;
4808;SDS011;2418;49.930;8.606;2023-07-29T08:50:01;1.02;;;1.02;;
4808;SDS011;2418;49.930;8.606;2023-07-29T08:52:29;1.50;;;1.10;;
4808;SDS011;2418;49.930;8.606;2023-07-29T08:54:57;0.90;;;0.90;;
4808;SDS011;2418;49.930;8.606;2023-07-29T08:57:25;1.30;;;0.90;;
4808;SDS011;2418;49.930;8.606;2023-07-29T08:59:51;0.90;;;0.90;;
4808;SDS011;2418;49.930;8.606;2023-07-29T09:02:17;1.17;;;1.17;;
4808;SDS011;2418;49.930;8.606;2023-07-29T09:04:43;1.10;;;1.10;;
4808;SDS011;2418;49.930;8.606;2023-07-29T09:07:09;0.90;;;0.90;;
4808;SDS011;2418;49.930;8.606;2023-07-29T09:09:37;1.05;;;1.05;;
4808;SDS011;2418;49.930;8.606;2023-07-29T09:12:03;1.20;;;1.20;;
4808;SDS011;2418;49.930;8.606;2023-07-29T09:14:29;1.20;;;1.20;;
4808;SDS011;2418;49.930;8.606;2023-07-29T09:16:55;1.00;;;1.00;;
4808;SDS011;2418;49.930;8.606;2023-07-29T09:19:24;1.20;;;1.13;;
4808;SDS011;2418;49.930;8.606;2023-07-29T09:21:51;4.80;;;1.33;;
4808;SDS011;2418;49.930;8.606;2023-07-29T09:24:17;1.20;;;1.20;;
4808;SDS011;2418;49.930;8.606;2023-07-29T09:26:50;1.65;;;1.55;;
4808;SDS011;2418;49.930;8.606;2023-07-29T09:29:21;1.10;;;1.10;;
4808;SDS011;2418;49.930;8.606;2023-07-29T09:31:47;1.00;;;0.90;;
4808;SDS011;2418;49.930;8.606;2023-07-29T09:34:14;1.00;;;1.00;;
4808;SDS011;2418;49.930;8.606;2023-07-29T09:36:42;0.90;;;0.90;;
4808;SDS011;2418;49.930;8.606;2023-07-29T09:39:11;2.40;;;1.13;;
4808;SDS011;2418;49.930;8.606;2023-07-29T09:41:41;0.80;;;0.80;;
4808;SDS011;2418;49.930;8.606;2023-07-29T09:44:07;0.90;;;0.90;;
4808;SDS011;2418;49.930;8.606;2023-07-29T09:46:33;1.00;;;1.00;;
4808;SDS011;2418;49.930;8.606;2023-07-29T09:49:01;0.80;;;0.60;;
4808;SDS011;2418;49.930;8.606;2023-07-29T09:51:27;1.10;;;0.90;;
4808;SDS011;2418;49.930;8.606;2023-07-29T09:53:55;0.70;;;0.70;;
4808;SDS011;2418;49.930;8.606;2023-07-29T09:56:24;1.02;;;0.90;;
4808;SDS011;2418;49.930;8.606;2023-07-29T09:58:51;0.65;;;0.65;;
4808;SDS011;2418;49.930;8.606;2023-07-29T10:01:17;0.80;;;0.80;;
4808;SDS011;2418;49.930;8.606;2023-07-29T10:03:43;0.60;;;0.60;;
4808;SDS011;2418;49.930;8.606;2023-07-29T10:06:12;0.70;;;0.70;;
4808;SDS011;2418;49.930;8.606;2023-07-29T10:08:58;4.03;;;0.93;;
4808;SDS011;2418;49.930;8.606;2023-07-29T10:11:24;1.00;;;1.00;;
4808;SDS011;2418;49.930;8.606;2023-07-29T10:13:51;0.80;;;0.80;;
4808;SDS011;2418;49.930;8.606;2023-07-29T10:16:17;1.00;;;1.00;;
4808;SDS011;2418;49.930;8.606;2023-07-29T10:18:44;1.20;;;1.10;;
4808;SDS011;2418;49.930;8.606;2023-07-29T10:21:10;1.30;;;1.20;;
4808;SDS011;2418;49.930;8.606;2023-07-29T10:23:38;1.40;;;1.40;;
4808;SDS011;2418;49.930;8.606;2023-07-29T10:26:04;1.10;;;1.10;;
4808;SDS011;2418;49.930;8.606;2023-07-29T10:28:31;0.80;;;0.80;;
4808;SDS011;2418;49.930;8.606;2023-07-29T10:30:58;1.00;;;0.80;;
4808;SDS011;2418;49.930;8.606;2023-07-29T10:33:25;0.95;;;0.95;;
4808;SDS011;2418;49.930;8.606;2023-07-29T10:35:51;0.80;;;0.80;;
4808;SDS011;2418;49.930;8.606;2023-07-29T10:38:18;1.00;;;1.00;;
4808;SDS011;2418;49.930;8.606;2023-07-29T10:40:50;0.70;;;0.70;;
4808;SDS011;2418;49.930;8.606;2023-07-29T10:43:23;0.80;;;0.80;;
4808;SDS011;2418;49.930;8.606;2023-07-29T10:45:50;1.20;;;0.80;;
4808;SDS011;2418;49.930;8.606;2023-07-29T10:53:45;2.13;;;1.23;;
4808;SDS011;2418;49.930;8.606;2023-07-29T10:56:12;4.70;;;0.70;;
4808;SDS011;2418;49.930;8.606;2023-07-29T10:58:38;0.80;;;0.80;;
4808;SDS011;2418;49.930;8.606;2023-07-29T11:01:12;0.95;;;0.70;;
4808;SDS011;2418;49.930;8.606;2023-07-29T11:03:38;0.60;;;0.60;;
4808;SDS011;2418;49.930;8.606;2023-07-29T11:06:04;1.20;;;1.00;;
4808;SDS011;2418;49.930;8.606;2023-07-29T11:08:31;1.00;;;1.00;;
4808;SDS011;2418;49.930;8.606;2023-07-29T11:13:28;1.63;;;1.52;;
4808;SDS011;2418;49.930;8.606;2023-07-29T11:15:55;1.10;;;1.08;;
4808;SDS011;2418;49.930;8.606;2023-07-29T11:18:26;1.20;;;1.10;;
4808;SDS011;2418;49.930;8.606;2023-07-29T11:20:53;1.17;;;1.17;;
4808;SDS011;2418;49.930;8.606;2023-07-29T11:23:19;0.82;;;0.82;;
4808;SDS011;2418;49.930;8.606;2023-07-29T11:25:47;0.80;;;0.80;;
4808;SDS011;2418;49.930;8.606;2023-07-29T11:28:15;1.30;;;0.90;;
4808;SDS011;2418;49.930;8.606;2023-07-29T11:30:41;1.20;;;1.20;;
4808;SDS011;2418;49.930;8.606;2023-07-29T11:33:07;0.85;;;0.82;;
4808;SDS011;2418;49.930;8.606;2023-07-29T11:35:33;1.30;;;1.30;;
4808;SDS011;2418;49.930;8.606;2023-07-29T11:37:59;1.30;;;1.20;;
4808;SDS011;2418;49.930;8.606;2023-07-29T11:40:25;0.80;;;0.80;;
4808;SDS011;2418;49.930;8.606;2023-07-29T11:42:51;0.80;;;0.80;;
4808;SDS011;2418;49.930;8.606;2023-07-29T11:45:19;1.42;;;1.33;;
4808;SDS011;2418;49.930;8.606;2023-07-29T11:47:45;1.20;;;1.20;;
4808;SDS011;2418;49.930;8.606;2023-07-29T11:50:12;1.20;;;1.20;;
4808;SDS011;2418;49.930;8.606;2023-07-29T11:52:40;1.20;;;1.20;;
4808;SDS011;2418;49.930;8.606;2023-07-29T11:55:06;1.48;;;1.30;;
4808;SDS011;2418;49.930;8.606;2023-07-29T11:57:34;1.98;;;1.17;;
4808;SDS011;2418;49.930;8.606;2023-07-29T12:00:07;2.30;;;1.20;;
4808;SDS011;2418;49.930;8.606;2023-07-29T12:02:39;0.98;;;0.98;;
4808;SDS011;2418;49.930;8.606;2023-07-29T12:05:05;1.15;;;1.13;;
4808;SDS011;2418;49.930;8.606;2023-07-29T12:07:32;1.20;;;1.20;;
4808;SDS011;2418;49.930;8.606;2023-07-29T12:09:58;4.90;;;1.00;;
4808;SDS011;2418;49.930;8.606;2023-07-29T12:12:24;1.63;;;1.10;;
4808;SDS011;2418;49.930;8.606;2023-07-29T12:14:50;1.00;;;1.00;;
4808;SDS011;2418;49.930;8.606;2023-07-29T12:17:16;1.10;;;1.10;;
4808;SDS011;2418;49.930;8.606;2023-07-29T12:19:44;1.13;;;1.13;;
4808;SDS011;2418;49.930;8.606;2023-07-29T12:22:10;2.20;;;1.00;;
4808;SDS011;2418;49.930;8.606;2023-07-29T12:24:40;0.90;;;0.90;;
4808;SDS011;2418;49.930;8.606;2023-07-29T12:27:10;0.80;;;0.80;;
4808;SDS011;2418;49.930;8.606;2023-07-29T12:29:42;0.97;;;0.97;;
4808;SDS011;2418;49.930;8.606;2023-07-29T12:32:09;0.90;;;0.90;;
4808;SDS011;2418;49.930;8.606;2023-07-29T12:34:37;0.70;;;0.70;;
4808;SDS011;2418;49.930;8.606;2023-07-29T12:37:04;0.70;;;0.70;;
4808;SDS011;2418;49.930;8.606;2023-07-29T12:39:31;0.70;;;0.70;;
4808;SDS011;2418;49.930;8.606;2023-07-29T12:41:59;1.00;;;1.00;;
4808;SDS011;2418;49.930;8.606;2023-07-29T12:44:25;1.23;;;1.20;;
4808;SDS011;2418;49.930;8.606;2023-07-29T12:47:00;0.83;;;0.83;;
4808;SDS011;2418;49.930;8.606;2023-07-29T12:49:26;0.90;;;0.90;;
4808;SDS011;2418;49.930;8.606;2023-07-29T12:51:53;1.00;;;1.00;;
4808;SDS011;2418;49.930;8.606;2023-07-29T12:54:20;0.60;;;0.60;;
4808;SDS011;2418;49.930;8.606;2023-07-29T12:56:46;0.80;;;0.80;;
4808;SDS011;2418;49.930;8.606;2023-07-29T12:59:12;1.00;;;1.00;;
4808;SDS011;2418;49.930;8.606;2023-07-29T13:01:38;1.50;;;0.90;;
4808;SDS011;2418;49.930;8.606;2023-07-29T13:04:05;1.00;;;1.00;;
4808;SDS011;2418;49.930;8.606;2023-07-29T13:06:33;1.70;;;0.70;;
4808;SDS011;2418;49.930;8.606;2023-07-29T13:08:59;0.60;;;0.60;;
4808;SDS011;2418;49.930;8.606;2023-07-29T13:11:25;1.88;;;1.05;;
4808;SDS011;2418;49.930;8.606;2023-07-29T13:13:51;1.10;;;1.10;;
4808;SDS011;2418;49.930;8.606;2023-07-29T13:16:17;0.90;;;0.90;;
4808;SDS011;2418;49.930;8.606;2023-07-29T13:18:43;0.90;;;0.90;;
4808;SDS011;2418;49.930;8.606;2023-07-29T13:21:09;1.02;;;1.00;;
4808;SDS011;2418;49.930;8.606;2023-07-29T13:23:35;1.00;;;1.00;;
4808;SDS011;2418;49.930;8.606;2023-07-29T13:26:01;0.90;;;0.90;;
4808;SDS011;2418;49.930;8.606;2023-07-29T13:28:27;1.33;;;1.33;;
4808;SDS011;2418;49.930;8.606;2023-07-29T13:30:53;0.90;;;0.90;;
4808;SDS011;2418;49.930;8.606;2023-07-29T13:33:19;1.10;;;1.10;;
4808;SDS011;2418;49.930;8.606;2023-07-29T13:35:46;0.90;;;0.90;;
4808;SDS011;2418;49.930;8.606;2023-07-29T13:38:12;1.80;;;1.20;;
4808;SDS011;2418;49.930;8.606;2023-07-29T13:40:37;1.00;;;1.00;;
4808;SDS011;2418;49.930;8.606;2023-07-29T13:43:03;0.80;;;0.80;;
4808;SDS011;2418;49.930;8.606;2023-07-29T13:45:29;1.73;;;1.08;;
4808;SDS011;2418;49.930;8.606;2023-07-29T13:47:55;1.10;;;1.10;;
4808;SDS011;2418;49.930;8.606;2023-07-29T13:50:21;1.40;;;1.40;;
4808;SDS011;2418;49.930;8.606;2023-07-29T13:52:48;1.23;;;1.23;;
4808;SDS011;2418;49.930;8.606;2023-07-29T13:55:14;0.90;;;0.90;;
4808;SDS011;2418;49.930;8.606;2023-07-29T13:57:40;0.90;;;0.90;;
4808;SDS011;2418;49.930;8.606;2023-07-29T14:00:06;0.80;;;0.80;;
4808;SDS011;2418;49.930;8.606;2023-07-29T14:02:33;1.00;;;1.00;;
4808;SDS011;2418;49.930;8.606;2023-07-29T14:04:59;0.70;;;0.70;;
4808;SDS011;2418;49.930;8.606;2023-07-29T14:07:25;2.00;;;1.27;;
4808;SDS011;2418;49.930;8.606;2023-07-29T14:09:51;0.90;;;0.90;;
4808;SDS011;2418;49.930;8.606;2023-07-29T14:12:17;0.90;;;0.90;;
4808;SDS011;2418;49.930;8.606;2023-07-29T14:14:43;0.90;;;0.90;;
4808;SDS011;2418;49.930;8.606;2023-07-29T14:17:09;0.80;;;0.80;;
4808;SDS011;2418;49.930;8.606;2023-07-29T14:19:35;0.80;;;0.80;;
4808;SDS011;2418;49.930;8.606;2023-07-29T14:22:01;1.40;;;0.95;;
4808;SDS011;2418;49.930;8.606;2023-07-29T14:24:26;1.00;;;1.00;;
4808;SDS011;2418;49.930;8.606;2023-07-29T14:26:52;1.20;;;1.20;;
4808;SDS011;2418;49.930;8.606;2023-07-29T14:29:18;1.80;;;0.80;;
4808;SDS011;2418;49.930;8.606;2023-07-29T14:31:44;0.90;;;0.90;;
4808;SDS011;2418;49.930;8.606;2023-07-29T14:34:10;1.13;;;1.05;;
4808;SDS011;2418;49.930;8.606;2023-07-29T14:36:36;1.00;;;1.00;;
4808;SDS011;2418;49.930;8.606;2023-07-29T14:39:02;1.35;;;1.25;;
4808;SDS011;2418;49.930;8.606;2023-07-29T14:41:29;2.40;;;1.00;;
4808;SDS011;2418;49.930;8.606;2023-07-29T14:43:54;1.00;;;1.00;;
4808;SDS011;2418;49.930;8.606;2023-07-29T14:46:20;1.30;;;1.30;;
4808;SDS011;2418;49.930;8.606;2023-07-29T14:48:46;1.13;;;1.13;;
4808;SDS011;2418;49.930;8.606;2023-07-29T14:51:13;1.30;;;1.10;;
4808;SDS011;2418;49.930;8.606;2023-07-29T14:53:38;1.75;;;1.00;;
4808;SDS011;2418;49.930;8.606;2023-07-29T14:56:04;0.80;;;0.80;;
4808;SDS011;2418;49.930;8.606;2023-07-29T14:58:30;1.10;;;1.10;;
4808;SDS011;2418;49.930;8.606;2023-07-29T15:00:56;1.30;;;1.20;;
4808;SDS011;2418;49.930;8.606;2023-07-29T15:03:23;1.10;;;1.10;;
4808;SDS011;2418;49.930;8.606;2023-07-29T15:05:49;1.00;;;1.00;;
4808;SDS011;2418;49.930;8.606;2023-07-29T15:08:15;1.70;;;1.02;;
4808;SDS011;2418;49.930;8.606;2023-07-29T15:10:44;1.23;;;1.23;;
4808;SDS011;2418;49.930;8.606;2023-07-29T15:13:11;1.13;;;1.13;;
4808;SDS011;2418;49.930;8.606;2023-07-29T15:15:39;0.90;;;0.90;;
4808;SDS011;2418;49.930;8.606;2023-07-29T15:18:05;1.05;;;1.05;;
4808;SDS011;2418;49.930;8.606;2023-07-29T15:20:31;1.20;;;1.20;;
4808;SDS011;2418;49.930;8.606;2023-07-29T15:22:57;0.90;;;0.90;;
4808;SDS011;2418;49.930;8.606;2023-07-29T15:25:23;1.40;;;1.08;;
4808;SDS011;2418;49.930;8.606;2023-07-29T15:27:49;1.02;;;1.02;;
4808;SDS011;2418;49.930;8.606;2023-07-29T15:30:15;0.90;;;0.80;;